Time;durP1;ratioP1;P1;durP2;ratioP2;P2;SDS_P1;SDS_P2;PMS_P1;PMS_P2;Temp;Humidity;BMP_temperature;BMP_pressure;BME280_temperature;BME280_humidity;BME280_pressure;Samples;Min_cycle;Max_cycle;Signal;HPM_P1;HPM_P2
2023/07/30 00:00:50;;;;;;;8.02;6.90;;;;;;;;;;6059401;23;20031;-62
2023/07/30 00:03:24;;;;;;;13.52;7.75;;;;;;;;;;6058121;23;20454;-63
2023/07/30 00:05:55;;;;;;;9.40;7.22;;;;;;;;;;6057653;23;20431;-62
2023/07/30 00:08:29;;;;;;;12.00;7.00;;;;;;;;;;6059377;23;20496;-62
2023/07/30 00:10:59;;;;;;;12.30;6.88;;;;;;;;;;6060734;23;20026;-62
2023/07/30 00:13:33;;;;;;;9.52;6.90;;;;;;;;;;6060071;23;20649;-62
2023/07/30 00:16:01;;;;;;;14.75;7.88;;;;;;;;;;6058136;23;20114;-60
2023/07/30 00:18:28;;;;;;;9.38;7.50;;;;;;;;;;6058375;23;20035;-60
2023/07/30 00:21:09;;;;;;;12.45;8.80;;;;;;;;;;6055797;23;20114;-60
2023/07/30 00:23:36;;;;;;;18.33;10.63;;;;;;;;;;6059113;23;20030;-60
2023/07/30 00:26:10;;;;;;;17.23;11.50;;;;;;;;;;6059509;23;20027;-54
2023/07/30 00:28:37;;;;;;;13.93;10.93;;;;;;;;;;6060344;23;20086;-51
2023/07/30 00:31:05;;;;;;;19.15;12.45;;;;;;;;;;6057449;23;20090;-54
2023/07/30 00:33:38;;;;;;;12.50;10.70;;;;;;;;;;6059852;23;20452;-52
2023/07/30 00:36:05;;;;;;;19.70;13.45;;;;;;;;;;6059900;23;20397;-55
2023/07/30 00:38:39;;;;;;;26.27;16.17;;;;;;;;;;6059012;23;20027;-54
2023/07/30 00:41:06;;;;;;;23.25;15.98;;;;;;;;;;6061321;23;20074;-55
2023/07/30 00:43:34;;;;;;;22.90;16.98;;;;;;;;;;6060498;23;20023;-62
2023/07/30 00:46:07;;;;;;;23.40;15.90;;;;;;;;;;6058605;23;20460;-62
2023/07/30 00:48:35;;;;;;;22.27;15.63;;;;;;;;;;6057417;23;20065;-62
2023/07/30 00:51:09;;;;;;;25.13;17.40;;;;;;;;;;6058960;23;20033;-62
2023/07/30 00:53:37;;;;;;;23.67;17.52;;;;;;;;;;6059957;23;20074;-56
2023/07/30 00:56:05;;;;;;;26.67;17.67;;;;;;;;;;6059223;23;20031;-62
2023/07/30 00:58:41;;;;;;;34.78;19.45;;;;;;;;;;6058164;23;20430;-56
2023/07/30 01:01:08;;;;;;;33.63;18.55;;;;;;;;;;6057967;23;20740;-58
2023/07/30 01:03:35;;;;;;;21.80;16.33;;;;;;;;;;6059537;23;20106;-57
2023/07/30 01:06:09;;;;;;;32.13;21.67;;;;;;;;;;6057041;23;20031;-57
2023/07/30 01:08:36;;;;;;;26.83;18.77;;;;;;;;;;6059846;23;20031;-58
2023/07/30 01:11:11;;;;;;;28.08;19.05;;;;;;;;;;6059647;23;20058;-58
2023/07/30 01:13:38;;;;;;;;;;;;;;;;;;6060842;23;20094;-57
2023/07/30 01:16:06;;;;;;;28.92;18.75;;;;;;;;;;6060345;23;19931;-55
2023/07/30 01:18:47;;;;;;;24.80;16.05;;;;;;;;;;6061235;23;20081;-57
2023/07/30 01:21:14;;;;;;;27.08;18.80;;;;;;;;;;6061315;23;20030;-58
2023/07/30 01:23:48;;;;;;;29.70;19.70;;;;;;;;;;6056826;23;20106;-58
2023/07/30 01:26:20;;;;;;;24.45;18.40;;;;;;;;;;6062853;23;20532;-57
2023/07/30 01:28:49;;;;;;;33.90;19.67;;;;;;;;;;6062524;23;20090;-56
2023/07/30 01:31:25;;;;;;;32.05;20.30;;;;;;;;;;6060675;23;20477;-55
2023/07/30 01:33:53;;;;;;;34.63;20.10;;;;;;;;;;6062076;23;20261;-56
2023/07/30 01:36:21;;;;;;;25.48;19.27;;;;;;;;;;6060327;23;20086;-55
2023/07/30 01:38:54;;;;;;;32.45;19.80;;;;;;;;;;6061399;23;20027;-56
2023/07/30 01:41:21;;;;;;;28.75;19.08;;;;;;;;;;6062432;23;20027;-70
2023/07/30 01:43:55;;;;;;;24.00;17.40;;;;;;;;;;6061369;23;20082;-71
2023/07/30 01:46:22;;;;;;;29.08;18.42;;;;;;;;;;6060819;23;20023;-71
2023/07/30 01:48:49;;;;;;;29.95;18.85;;;;;;;;;;6059569;23;20023;-70
2023/07/30 01:51:23;;;;;;;28.45;19.42;;;;;;;;;;6061578;23;20033;-62
2023/07/30 01:53:50;;;;;;;32.75;19.13;;;;;;;;;;6060813;23;20030;-72
2023/07/30 01:56:17;;;;;;;32.08;21.00;;;;;;;;;;6061512;23;20031;-70
2023/07/30 01:58:51;;;;;;;34.17;20.50;;;;;;;;;;6060754;23;20030;-73
2023/07/30 02:01:18;;;;;;;22.83;17.95;;;;;;;;;;6060037;23;20130;-72
2023/07/30 02:03:52;;;;;;;41.38;20.67;;;;;;;;;;6059705;23;20301;-73
2023/07/30 02:06:20;;;;;;;27.00;18.55;;;;;;;;;;6060812;23;20030;-72
2023/07/30 02:08:47;;;;;;;26.00;17.38;;;;;;;;;;6063009;23;20091;-61
2023/07/30 02:11:21;;;;;;;29.25;19.10;;;;;;;;;;6060260;23;20031;-61
2023/07/30 02:13:48;;;;;;;26.67;19.25;;;;;;;;;;6061345;23;20025;-61
2023/07/30 02:16:22;;;;;;;35.47;19.33;;;;;;;;;;6057894;23;20035;-60
2023/07/30 02:18:56;;;;;;;28.40;18.92;;;;;;;;;;6060310;23;20055;-58
2023/07/30 02:21:32;;;;;;;41.10;21.27;;;;;;;;;;6059131;23;20038;-65
2023/07/30 02:24:00;;;;;;;28.88;18.25;;;;;;;;;;6061756;23;20247;-65
2023/07/30 02:26:27;;;;;;;26.77;17.58;;;;;;;;;;6058040;23;20026;-65
2023/07/30 02:29:01;;;;;;;34.03;19.30;;;;;;;;;;6062105;23;20023;-66
2023/07/30 02:31:28;;;;;;;30.95;18.45;;;;;;;;;;6060353;23;20078;-66
2023/07/30 02:34:03;;;;;;;30.33;19.08;;;;;;;;;;6062038;23;20022;-65
2023/07/30 02:36:30;;;;;;;27.40;17.58;;;;;;;;;;6061209;23;20239;-65
2023/07/30 02:38:57;;;;;;;35.28;19.35;;;;;;;;;;6060405;23;20059;-57
2023/07/30 02:41:31;;;;;;;24.17;15.13;;;;;;;;;;6061122;23;20027;-53
2023/07/30 02:43:58;;;;;;;46.78;20.70;;;;;;;;;;6060880;23;20027;-57
2023/07/30 02:46:32;;;;;;;42.92;18.83;;;;;;;;;;6060638;23;20027;-55
2023/07/30 02:49:00;;;;;;;21.55;14.70;;;;;;;;;;6059948;23;20062;-57
2023/07/30 02:51:27;;;;;;;41.95;18.23;;;;;;;;;;6059325;23;20027;-57
2023/07/30 02:54:05;;;;;;;17.25;12.48;;;;;;;;;;6061443;23;20023;-54
2023/07/30 02:56:32;;;;;;;55.80;18.33;;;;;;;;;;6059838;23;20062;-54
2023/07/30 02:59:05;;;;;;;35.30;14.90;;;;;;;;;;6060536;23;20410;-55
2023/07/30 03:01:32;;;;;;;12.18;8.50;;;;;;;;;;6059735;23;20501;-53
2023/07/30 03:04:00;;;;;;;10.02;7.53;;;;;;;;;;6059923;23;20362;-57
2023/07/30 03:06:34;;;;;;;12.40;8.25;;;;;;;;;;6060685;23;20082;-58
2023/07/30 03:09:02;;;;;;;22.23;9.85;;;;;;;;;;6059942;23;20437;-59
2023/07/30 03:11:36;;;;;;;14.50;8.15;;;;;;;;;;6056203;23;20094;-59
2023/07/30 03:14:04;;;;;;;16.60;8.90;;;;;;;;;;6060323;23;20023;-59
2023/07/30 03:16:31;;;;;;;6.55;5.38;;;;;;;;;;6060001;23;20030;-55
2023/07/30 03:19:18;;;;;;;9.32;7.40;;;;;;;;;;6059446;23;20033;-65
2023/07/30 03:21:45;;;;;;;14.60;7.78;;;;;;;;;;6057805;23;20098;-65
2023/07/30 03:24:19;;;;;;;14.30;8.25;;;;;;;;;;6059583;23;20026;-65
2023/07/30 03:26:46;;;;;;;13.68;7.78;;;;;;;;;;6058733;23;20778;-65
2023/07/30 03:29:15;;;;;;;8.48;6.75;;;;;;;;;;6061026;23;20079;-65
2023/07/30 03:31:49;;;;;;;17.45;9.48;;;;;;;;;;6057730;23;20109;-65
2023/07/30 03:34:16;;;;;;;30.75;11.15;;;;;;;;;;6062965;23;20086;-65
2023/07/30 03:36:50;;;;;;;17.10;9.05;;;;;;;;;;6059068;23;20034;-66
2023/07/30 03:39:18;;;;;;;14.07;8.35;;;;;;;;;;6061935;23;20544;-65
2023/07/30 03:41:45;;;;;;;10.85;7.82;;;;;;;;;;6061246;23;20026;-65
2023/07/30 03:44:19;;;;;;;13.10;8.10;;;;;;;;;;6062593;23;20026;-72
2023/07/30 03:46:46;;;;;;;11.77;7.75;;;;;;;;;;6060529;23;20469;-60
2023/07/30 03:49:20;;;;;;;9.82;7.47;;;;;;;;;;6059907;23;20524;-54
2023/07/30 03:51:48;;;;;;;11.77;8.02;;;;;;;;;;6062023;23;20018;-56
2023/07/30 03:54:15;;;;;;;14.00;8.57;;;;;;;;;;6061757;23;20086;-55
2023/07/30 03:56:49;;;;;;;10.57;7.78;;;;;;;;;;6061373;23;20078;-55
2023/07/30 03:59:16;;;;;;;25.75;9.55;;;;;;;;;;6060865;23;20258;-55
2023/07/30 04:01:50;;;;;;;12.23;8.10;;;;;;;;;;6059594;23;20469;-57
2023/07/30 04:04:18;;;;;;;15.88;8.55;;;;;;;;;;6059017;23;20061;-56
2023/07/30 04:06:45;;;;;;;183.73;17.60;;;;;;;;;;6060172;23;20034;-56
2023/07/30 04:09:20;;;;;;;228.52;20.00;;;;;;;;;;6060096;23;20361;-55
2023/07/30 04:11:47;;;;;;;;;;;;;;;;;;6059369;23;20026;-57
2023/07/30 04:14:14;;;;;;;81.55;12.43;;;;;;;;;;6059829;23;19925;-59
2023/07/30 04:16:48;;;;;;;19.25;8.30;;;;;;;;;;6059686;23;20334;-62
2023/07/30 04:19:23;;;;;;;10.65;6.10;;;;;;;;;;6058123;23;20078;-62
2023/07/30 04:21:56;;;;;;;10.73;4.97;;;;;;;;;;6060231;23;20026;-62
2023/07/30 04:24:23;;;;;;;9.65;6.53;;;;;;;;;;6059548;23;20078;-62
2023/07/30 04:26:50;;;;;;;20.98;8.25;;;;;;;;;;6057132;23;20075;-62
2023/07/30 04:29:24;;;;;;;13.60;6.85;;;;;;;;;;6060078;23;20030;-62
2023/07/30 04:31:51;;;;;;;9.70;6.10;;;;;;;;;;6059171;23;20077;-61
2023/07/30 04:34:25;;;;;;;14.55;7.35;;;;;;;;;;6058115;23;20074;-62
2023/07/30 04:36:53;;;;;;;16.67;7.18;;;;;;;;;;6058356;23;20418;-62
2023/07/30 04:39:20;;;;;;;23.65;9.02;;;;;;;;;;6057785;23;20030;-62
2023/07/30 04:41:54;;;;;;;11.95;6.80;;;;;;;;;;6059882;23;20402;-61
2023/07/30 04:44:21;;;;;;;9.18;6.55;;;;;;;;;;6054113;23;20031;-66
2023/07/30 04:46:49;;;;;;;27.00;8.98;;;;;;;;;;6058945;23;20030;-71
2023/07/30 04:49:22;;;;;;;17.83;7.70;;;;;;;;;;6059744;23;20484;-71
2023/07/30 04:51:49;;;;;;;16.65;7.90;;;;;;;;;;6061876;23;20030;-71
2023/07/30 04:54:17;;;;;;;17.33;9.23;;;;;;;;;;6061041;23;20022;-71
2023/07/30 04:56:50;;;;;;;24.52;9.32;;;;;;;;;;6058284;23;20031;-72
2023/07/30 04:59:17;;;;;;;20.90;8.32;;;;;;;;;;6062276;23;20034;-70
2023/07/30 05:01:51;;;;;;;15.70;7.65;;;;;;;;;;6059483;23;20027;-62
2023/07/30 05:04:18;;;;;;;18.60;7.72;;;;;;;;;;6062226;23;20034;-62
2023/07/30 05:06:55;;;;;;;23.83;8.82;;;;;;;;;;6064039;23;20027;-62
2023/07/30 05:09:28;;;;;;;25.92;9.38;;;;;;;;;;6062634;23;20079;-63
2023/07/30 05:11:55;;;;;;;21.20;10.07;;;;;;;;;;6059978;23;20582;-59
2023/07/30 05:14:29;;;;;;;14.05;7.47;;;;;;;;;;6062510;23;20082;-66
2023/07/30 05:16:56;;;;;;;13.32;7.82;;;;;;;;;;6062199;23;20481;-66
2023/07/30 05:19:24;;;;;;;14.70;7.57;;;;;;;;;;6060803;23;20030;-67
2023/07/30 05:21:59;;;;;;;13.13;7.93;;;;;;;;;;6061489;23;20023;-65
2023/07/30 05:24:26;;;;;;;14.25;7.78;;;;;;;;;;6062754;23;20410;-66
2023/07/30 05:27:01;;;;;;;12.25;6.93;;;;;;;;;;6061790;23;20402;-66
2023/07/30 05:29:28;;;;;;;29.90;9.98;;;;;;;;;;6062277;23;20087;-56
2023/07/30 05:31:55;;;;;;;17.50;8.52;;;;;;;;;;6063172;23;20027;-55
2023/07/30 05:34:29;;;;;;;16.33;7.53;;;;;;;;;;6059751;23;20082;-57
2023/07/30 05:36:57;;;;;;;18.75;8.82;;;;;;;;;;6062497;23;20145;-55
2023/07/30 05:39:30;;;;;;;21.40;8.75;;;;;;;;;;6062658;23;20058;-72
2023/07/30 05:41:57;;;;;;;16.80;7.55;;;;;;;;;;6061466;23;20050;-55
2023/07/30 05:44:25;;;;;;;18.23;7.15;;;;;;;;;;6061258;23;20026;-56
2023/07/30 05:46:58;;;;;;;11.90;5.07;;;;;;;;;;6061638;23;20030;-55
2023/07/30 05:49:25;;;;;;;16.90;6.85;;;;;;;;;;6063555;23;20026;-56
2023/07/30 05:52:00;;;;;;;13.02;5.75;;;;;;;;;;6060870;23;20094;-56
2023/07/30 05:54:27;;;;;;;20.40;6.25;;;;;;;;;;6062781;23;20075;-55
2023/07/30 05:56:54;;;;;;;14.85;5.75;;;;;;;;;;6061912;23;20544;-64
2023/07/30 05:59:28;;;;;;;9.40;4.78;;;;;;;;;;6061431;23;20018;-64
2023/07/30 06:01:59;;;;;;;11.30;5.45;;;;;;;;;;6060662;23;20023;-64
2023/07/30 06:04:32;;;;;;;19.40;6.57;;;;;;;;;;6058953;23;20531;-63
2023/07/30 06:07:00;;;;;;;;;;;;;;;;;;6058199;23;20031;-61
2023/07/30 06:09:28;;;;;;;15.90;5.77;;;;;;;;;;6058492;23;19977;-64
2023/07/30 06:12:01;;;;;;;9.07;4.60;;;;;;;;;;6060780;23;20534;-56
2023/07/30 06:14:30;;;;;;;12.38;5.38;;;;;;;;;;6053726;23;20023;-53
2023/07/30 06:17:04;;;;;;;12.90;5.28;;;;;;;;;;6056714;23;20078;-53
2023/07/30 06:19:38;;;;;;;13.60;4.95;;;;;;;;;;6061576;23;20134;-54
2023/07/30 06:22:12;;;;;;;13.45;5.97;;;;;;;;;;6059671;23;20144;-55
2023/07/30 06:24:40;;;;;;;12.25;6.50;;;;;;;;;;6061524;23;20334;-55
2023/07/30 06:27:17;;;;;;;9.15;5.20;;;;;;;;;;6060174;23;20083;-52
2023/07/30 06:29:51;;;;;;;14.07;5.13;;;;;;;;;;6059895;23;20031;-56
2023/07/30 06:32:18;;;;;;;11.52;5.75;;;;;;;;;;6060041;23;20295;-56
2023/07/30 06:34:52;;;;;;;13.80;5.82;;;;;;;;;;6060488;23;20022;-56
2023/07/30 06:37:20;;;;;;;17.05;5.72;;;;;;;;;;6057330;23;20023;-76
2023/07/30 06:39:47;;;;;;;16.13;6.20;;;;;;;;;;6061755;23;20026;-64
2023/07/30 06:42:21;;;;;;;12.98;5.22;;;;;;;;;;6058434;23;20039;-64
2023/07/30 06:44:52;;;;;;;14.73;5.82;;;;;;;;;;6056975;23;20370;-64
2023/07/30 06:47:26;;;;;;;15.70;5.20;;;;;;;;;;6053126;23;20041;-64
2023/07/30 06:49:54;;;;;;;10.60;5.20;;;;;;;;;;6056032;23;20108;-64
2023/07/30 06:52:21;;;;;;;15.27;5.20;;;;;;;;;;6058744;23;20082;-63
2023/07/30 06:54:54;;;;;;;13.30;5.50;;;;;;;;;;6058638;23;20485;-75
2023/07/30 06:57:21;;;;;;;12.15;5.45;;;;;;;;;;6061203;23;20023;-74
2023/07/30 06:59:55;;;;;;;11.00;4.97;;;;;;;;;;6059865;23;20401;-73
2023/07/30 07:02:23;;;;;;;13.18;5.45;;;;;;;;;;6062418;23;20026;-72
2023/07/30 07:04:50;;;;;;;14.13;4.90;;;;;;;;;;6061186;23;20342;-58
2023/07/30 07:07:31;;;;;;;15.88;5.13;;;;;;;;;;6062466;23;20420;-58
2023/07/30 07:09:58;;;;;;;11.80;4.38;;;;;;;;;;6061074;23;20086;-58
2023/07/30 07:12:32;;;;;;;16.58;4.70;;;;;;;;;;6061519;23;20026;-58
2023/07/30 07:15:01;;;;;;;;;;;;;;;;;;6061712;23;20473;-57
2023/07/30 07:17:28;;;;;;;12.63;4.93;;;;;;;;;;6061362;23;19936;-58
2023/07/30 07:20:10;;;;;;;8.98;3.90;;;;;;;;;;6062974;23;20078;-58
2023/07/30 07:22:37;;;;;;;9.95;4.53;;;;;;;;;;6060506;23;20031;-58
2023/07/30 07:25:11;;;;;;;11.43;4.50;;;;;;;;;;6059742;23;20023;-58
2023/07/30 07:27:39;;;;;;;11.63;4.65;;;;;;;;;;6058918;23;20512;-58
2023/07/30 07:30:06;;;;;;;14.57;4.80;;;;;;;;;;6054543;23;20472;-58
2023/07/30 07:32:40;;;;;;;15.35;4.78;;;;;;;;;;6059021;23;20078;-61
2023/07/30 07:35:08;;;;;;;;;;;;;;;;;;6059769;23;20301;-58
2023/07/30 07:37:41;;;;;;;13.90;5.05;;;;;;;;;;6057037;23;20328;-67
2023/07/30 07:40:09;;;;;;;10.55;4.60;;;;;;;;;;6060349;23;20034;-67
2023/07/30 07:42:39;;;;;;;12.32;4.53;;;;;;;;;;6058815;23;20135;-67
2023/07/30 07:45:12;;;;;;;11.55;4.43;;;;;;;;;;6059030;23;20443;-67
2023/07/30 07:47:39;;;;;;;10.95;4.30;;;;;;;;;;6059194;23;20026;-67
2023/07/30 07:50:14;;;;;;;9.70;3.97;;;;;;;;;;6057842;23;20031;-69
2023/07/30 07:52:41;;;;;;;12.68;5.03;;;;;;;;;;6058305;23;20030;-70
2023/07/30 07:55:08;;;;;;;22.20;4.60;;;;;;;;;;6058691;23;20026;-70
2023/07/30 07:57:43;;;;;;;8.63;3.90;;;;;;;;;;6058453;23;20354;-70
2023/07/30 08:00:10;;;;;;;10.10;4.45;;;;;;;;;;6059020;23;20045;-70
2023/07/30 08:02:44;;;;;;;11.80;3.95;;;;;;;;;;6060554;23;20091;-59
2023/07/30 08:05:14;;;;;;;14.90;4.18;;;;;;;;;;6060173;23;20473;-58
2023/07/30 08:07:41;;;;;;;;;;;;;;;;;;6061093;23;20030;-58
2023/07/30 08:10:16;;;;;;;13.60;4.10;;;;;;;;;;6061123;23;20336;-58
2023/07/30 08:12:44;;;;;;;8.35;3.25;;;;;;;;;;6058841;23;20042;-58
2023/07/30 08:15:19;;;;;;;10.38;3.75;;;;;;;;;;6059961;23;20402;-59
2023/07/30 08:17:46;;;;;;;;;;;;;;;;;;6059705;23;20031;-58
2023/07/30 08:20:20;;;;;;;14.77;4.80;;;;;;;;;;6060680;23;19977;-60
2023/07/30 08:22:54;;;;;;;4.63;2.67;;;;;;;;;;6057491;23;20342;-60
2023/07/30 08:25:21;;;;;;;8.18;2.55;;;;;;;;;;6060296;23;20023;-59
2023/07/30 08:27:55;;;;;;;5.95;2.00;;;;;;;;;;6058096;23;20082;-60
2023/07/30 08:30:22;;;;;;;7.35;2.25;;;;;;;;;;6059866;23;20022;-62
2023/07/30 08:32:50;;;;;;;6.10;2.67;;;;;;;;;;6059792;23;20022;-68
2023/07/30 08:35:24;;;;;;;4.72;2.97;;;;;;;;;;6060259;23;20023;-68
2023/07/30 08:38:05;;;;;;;5.00;2.70;;;;;;;;;;6059484;23;20053;-66
2023/07/30 08:40:46;;;;;;;7.43;3.83;;;;;;;;;;6061250;23;20082;-67
2023/07/30 08:43:13;;;;;;;8.48;2.95;;;;;;;;;;6060205;23;20390;-66
2023/07/30 08:45:47;;;;;;;8.43;3.17;;;;;;;;;;6059981;23;20373;-66
2023/07/30 08:48:15;;;;;;;7.05;3.25;;;;;;;;;;6059881;23;20030;-62
2023/07/30 08:50:42;;;;;;;7.25;3.20;;;;;;;;;;6060330;23;20082;-63
2023/07/30 08:53:16;;;;;;;9.90;3.78;;;;;;;;;;6060122;23;20049;-62
2023/07/30 08:55:44;;;;;;;9.02;3.38;;;;;;;;;;6060230;23;20031;-63
2023/07/30 08:58:11;;;;;;;;;;;;;;;;;;6061680;23;20030;-55
2023/07/30 09:00:46;;;;;;;7.20;3.08;;;;;;;;;;6060673;23;19922;-62
2023/07/30 09:03:15;;;;;;;6.47;3.10;;;;;;;;;;6058859;23;20079;-62
2023/07/30 09:05:49;;;;;;;8.00;3.17;;;;;;;;;;6059673;23;20023;-62
2023/07/30 09:08:24;;;;;;;12.57;3.63;;;;;;;;;;6059030;23;20026;-62
2023/07/30 09:10:57;;;;;;;14.52;3.90;;;;;;;;;;6054101;23;20105;-62
2023/07/30 09:13:25;;;;;;;9.82;3.58;;;;;;;;;;6057590;23;20094;-61
2023/07/30 09:15:52;;;;;;;10.32;4.07;;;;;;;;;;6058956;23;20035;-67
2023/07/30 09:18:45;;;;;;;8.50;3.15;;;;;;;;;;6059687;23;20019;-67
2023/07/30 09:21:19;;;;;;;7.13;3.60;;;;;;;;;;6058212;23;20026;-67
2023/07/30 09:23:53;;;;;;;12.73;3.97;;;;;;;;;;6057009;23;20488;-68
2023/07/30 09:26:21;;;;;;;15.00;3.80;;;;;;;;;;6059552;23;20075;-67
2023/07/30 09:28:48;;;;;;;9.63;3.40;;;;;;;;;;6057843;23;20102;-62
2023/07/30 09:31:22;;;;;;;11.95;4.07;;;;;;;;;;6059843;23;20026;-58
2023/07/30 09:33:50;;;;;;;7.65;3.05;;;;;;;;;;6057944;23;20058;-58
2023/07/30 09:36:23;;;;;;;9.00;3.70;;;;;;;;;;6059523;23;20027;-57
2023/07/30 09:38:51;;;;;;;13.18;3.45;;;;;;;;;;6061394;23;20090;-58
2023/07/30 09:41:18;;;;;;;;;;;;;;;;;;6060102;23;20082;-59
2023/07/30 09:44:01;;;;;;;10.73;3.92;;;;;;;;;;6060776;23;20176;-58
2023/07/30 09:46:30;;;;;;;10.18;4.07;;;;;;;;;;6061793;23;20026;-66
2023/07/30 09:49:04;;;;;;;12.25;3.08;;;;;;;;;;6059805;23;20524;-66
2023/07/30 09:51:33;;;;;;;12.10;3.65;;;;;;;;;;6060985;23;20417;-66
2023/07/30 09:54:02;;;;;;;15.40;4.13;;;;;;;;;;6060410;23;20034;-66
2023/07/30 09:56:40;;;;;;;10.50;3.35;;;;;;;;;;6059689;23;20097;-58
2023/07/30 09:59:08;;;;;;;11.52;3.47;;;;;;;;;;6061580;23;20027;-66
2023/07/30 10:01:47;;;;;;;11.40;3.67;;;;;;;;;;6061088;23;20078;-65
2023/07/30 10:04:15;;;;;;;12.45;3.47;;;;;;;;;;6060967;23;20053;-66
2023/07/30 10:06:52;;;;;;;10.75;2.95;;;;;;;;;;6060441;23;20054;-65
2023/07/30 10:09:20;;;;;;;11.00;3.25;;;;;;;;;;6059080;23;20448;-65
2023/07/30 10:11:49;;;;;;;12.27;3.15;;;;;;;;;;6058904;23;20027;-65
2023/07/30 10:14:24;;;;;;;8.73;3.10;;;;;;;;;;6062427;23;20019;-62
2023/07/30 10:16:57;;;;;;;10.90;3.08;;;;;;;;;;6059242;23;20033;-62
2023/07/30 10:19:37;;;;;;;9.65;2.50;;;;;;;;;;6059192;23;20030;-62
2023/07/30 10:22:14;;;;;;;11.80;2.80;;;;;;;;;;6061308;23;20045;-62
2023/07/30 10:24:58;;;;;;;14.20;3.15;;;;;;;;;;6060533;23;20075;-53
2023/07/30 10:27:26;;;;;;;7.07;3.58;;;;;;;;;;6059815;23;20102;-62
2023/07/30 10:30:14;;;;;;;10.90;3.00;;;;;;;;;;6060946;23;20030;-62
2023/07/30 10:32:41;;;;;;;13.93;3.67;;;;;;;;;;6058335;23;20030;-62
2023/07/30 10:35:34;;;;;;;15.25;3.88;;;;;;;;;;6060573;23;20070;-61
2023/07/30 10:38:12;;;;;;;13.63;3.42;;;;;;;;;;6061992;23;20054;-62
2023/07/30 10:41:05;;;;;;;14.50;2.90;;;;;;;;;;6060557;23;20035;-61
2023/07/30 10:43:37;;;;;;;8.52;3.17;;;;;;;;;;6060773;23;20064;-61
2023/07/30 10:46:11;;;;;;;8.13;2.88;;;;;;;;;;6060211;23;20102;-61
2023/07/30 10:48:46;;;;;;;10.75;2.97;;;;;;;;;;6060015;23;20300;-62
2023/07/30 10:51:15;;;;;;;13.63;3.40;;;;;;;;;;6060931;23;20476;-70
2023/07/30 10:53:45;;;;;;;7.15;3.10;;;;;;;;;;6060443;23;20030;-70
2023/07/30 10:56:23;;;;;;;15.40;3.30;;;;;;;;;;6059214;23;20079;-55
2023/07/30 10:58:54;;;;;;;12.82;3.25;;;;;;;;;;6060741;23;20489;-53
2023/07/30 11:01:27;;;;;;;11.20;3.42;;;;;;;;;;6059893;23;20027;-55
2023/07/30 11:03:55;;;;;;;21.23;3.58;;;;;;;;;;6060508;23;20493;-57
2023/07/30 11:06:26;;;;;;;11.63;3.15;;;;;;;;;;6060609;23;20103;-55
2023/07/30 11:08:59;;;;;;;16.93;3.03;;;;;;;;;;6059172;23;20053;-56
2023/07/30 11:11:26;;;;;;;14.48;3.30;;;;;;;;;;6060073;23;20318;-54
2023/07/30 11:13:54;;;;;;;8.10;2.88;;;;;;;;;;6060212;23;20488;-54
2023/07/30 11:16:27;;;;;;;12.70;3.50;;;;;;;;;;6056025;23;20400;-53
2023/07/30 11:19:01;;;;;;;10.35;2.80;;;;;;;;;;6055789;23;20031;-56
2023/07/30 11:21:45;;;;;;;12.55;2.50;;;;;;;;;;6058309;23;20031;-55
2023/07/30 11:24:13;;;;;;;6.07;2.40;;;;;;;;;;6060335;23;20038;-70
2023/07/30 11:26:46;;;;;;;7.03;2.13;;;;;;;;;;6058059;23;20035;-70
2023/07/30 11:29:17;;;;;;;7.97;2.60;;;;;;;;;;6058213;23;20062;-70
2023/07/30 11:31:45;;;;;;;6.53;1.80;;;;;;;;;;6057903;23;20692;-70
2023/07/30 11:34:18;;;;;;;9.05;2.10;;;;;;;;;;6059253;23;20025;-69
2023/07/30 11:36:46;;;;;;;3.53;2.00;;;;;;;;;;6058069;23;20031;-69
2023/07/30 11:39:20;;;;;;;8.25;2.17;;;;;;;;;;6062004;23;20326;-63
2023/07/30 11:41:47;;;;;;;6.93;1.77;;;;;;;;;;6058852;23;20039;-63
2023/07/30 11:44:30;;;;;;;5.85;2.00;;;;;;;;;;6058303;23;20027;-63
2023/07/30 11:47:05;;;;;;;7.15;2.00;;;;;;;;;;6058099;23;20094;-63
2023/07/30 11:49:32;;;;;;;7.05;1.98;;;;;;;;;;6060215;23;20091;-60
2023/07/30 11:52:07;;;;;;;6.28;2.00;;;;;;;;;;6058981;23;20027;-57
2023/07/30 11:54:35;;;;;;;7.53;2.30;;;;;;;;;;6059637;23;20075;-57
2023/07/30 11:57:02;;;;;;;10.43;2.33;;;;;;;;;;6057112;23;20026;-57
2023/07/30 11:59:36;;;;;;;9.23;2.05;;;;;;;;;;6059240;23;20477;-56
2023/07/30 12:02:03;;;;;;;6.00;2.00;;;;;;;;;;6058756;23;20026;-56
2023/07/30 12:04:31;;;;;;;;;;;;;;;;;;6058966;23;20022;-57
2023/07/30 12:07:05;;;;;;;9.65;2.38;;;;;;;;;;6058807;23;19931;-58
2023/07/30 12:09:35;;;;;;;9.00;2.72;;;;;;;;;;6058488;23;20568;-59
2023/07/30 12:12:03;;;;;;;4.15;2.05;;;;;;;;;;6057494;23;20106;-58
2023/07/30 12:14:44;;;;;;;6.88;2.00;;;;;;;;;;6057670;23;20091;-57
2023/07/30 12:17:11;;;;;;;8.15;2.53;;;;;;;;;;6055446;23;20034;-58
2023/07/30 12:19:52;;;;;;;12.18;2.35;;;;;;;;;;6057316;23;20086;-63
2023/07/30 12:22:19;;;;;;;6.72;1.92;;;;;;;;;;6059199;23;20031;-62
2023/07/30 12:24:54;;;;;;;8.52;2.13;;;;;;;;;;6058802;23;20082;-63
2023/07/30 12:27:21;;;;;;;9.80;2.70;;;;;;;;;;6058556;23;20023;-62
2023/07/30 12:29:48;;;;;;;9.13;2.28;;;;;;;;;;6058541;23;20606;-63
2023/07/30 12:32:21;;;;;;;8.95;2.08;;;;;;;;;;6057829;23;20070;-63
2023/07/30 12:34:48;;;;;;;5.15;2.15;;;;;;;;;;6058775;23;20023;-64
2023/07/30 12:37:23;;;;;;;8.07;1.83;;;;;;;;;;6058765;23;20090;-62
2023/07/30 12:39:50;;;;;;;8.45;1.95;;;;;;;;;;6059318;23;20096;-62
2023/07/30 12:42:17;;;;;;;7.53;2.25;;;;;;;;;;6054605;23;20027;-61
2023/07/30 12:44:51;;;;;;;9.23;2.38;;;;;;;;;;6059844;23;20102;-57
2023/07/30 12:47:18;;;;;;;;;;;;;;;;;;6058326;23;20027;-55
2023/07/30 12:49:51;;;;;;;7.82;2.10;;;;;;;;;;6057116;23;19918;-62
2023/07/30 12:52:19;;;;;;;7.68;2.40;;;;;;;;;;6057648;23;20465;-61
2023/07/30 12:54:46;;;;;;;;;;;;;;;;;;6059112;23;20035;-62
2023/07/30 12:57:20;;;;;;;16.02;2.78;;;;;;;;;;6055676;23;20336;-62
2023/07/30 12:59:48;;;;;;;8.88;2.00;;;;;;;;;;6059547;23;20026;-62
2023/07/30 13:02:22;;;;;;;6.25;1.92;;;;;;;;;;6055451;23;20365;-62
2023/07/30 13:04:49;;;;;;;15.45;2.95;;;;;;;;;;6060619;23;20413;-61
2023/07/30 13:07:16;;;;;;;8.23;2.40;;;;;;;;;;6058195;23;20110;-62
2023/07/30 13:10:02;;;;;;;8.73;2.10;;;;;;;;;;6058940;23;20030;-62
2023/07/30 13:12:29;;;;;;;7.40;2.15;;;;;;;;;;6056670;23;20464;-60
2023/07/30 13:15:04;;;;;;;10.65;2.20;;;;;;;;;;6061291;23;20022;-61
2023/07/30 13:17:31;;;;;;;8.85;1.88;;;;;;;;;;6058691;23;20031;-68
2023/07/30 13:19:59;;;;;;;6.47;1.80;;;;;;;;;;6060245;23;20027;-67
2023/07/30 13:22:33;;;;;;;9.48;2.10;;;;;;;;;;6059093;23;20322;-67
2023/07/30 13:25:00;;;;;;;;;;;;;;;;;;6062146;23;20029;-67
2023/07/30 13:27:27;;;;;;;7.93;2.20;;;;;;;;;;6060473;23;19973;-68
2023/07/30 13:30:03;;;;;;;9.35;2.20;;;;;;;;;;6062358;23;20026;-68
2023/07/30 13:32:30;;;;;;;;;;;;;;;;;;6060084;23;20101;-54
2023/07/30 13:35:05;;;;;;;7.20;1.90;;;;;;;;;;6060629;23;19921;-53
2023/07/30 13:37:32;;;;;;;;;;;;;;;;;;6062033;23;20402;-54
2023/07/30 13:39:59;;;;;;;8.90;2.10;;;;;;;;;;6060273;23;20344;-53
2023/07/30 13:42:32;;;;;;;5.47;2.00;;;;;;;;;;6057734;23;20109;-57
2023/07/30 13:45:00;;;;;;;5.57;1.83;;;;;;;;;;6058851;23;20398;-58
2023/07/30 13:47:34;;;;;;;5.35;1.88;;;;;;;;;;6056811;23;20448;-52
2023/07/30 13:50:01;;;;;;;9.93;2.10;;;;;;;;;;6059321;23;20033;-51
2023/07/30 13:52:28;;;;;;;7.32;1.95;;;;;;;;;;6060539;23;20023;-51
2023/07/30 13:55:02;;;;;;;14.82;3.13;;;;;;;;;;6056796;23;20421;-50
2023/07/30 13:57:30;;;;;;;8.90;2.10;;;;;;;;;;6057839;23;20243;-51
2023/07/30 13:59:57;;;;;;;6.43;2.15;;;;;;;;;;6059359;23;20023;-50
2023/07/30 14:02:30;;;;;;;5.70;2.10;;;;;;;;;;6057553;23;20027;-56
2023/07/30 14:04:58;;;;;;;;;;;;;;;;;;6061403;23;20027;-62
2023/07/30 14:07:32;;;;;;;8.63;1.90;;;;;;;;;;6060088;23;20362;-61
2023/07/30 14:09:59;;;;;;;;;;;;;;;;;;6058789;23;20033;-61
2023/07/30 14:12:26;;;;;;;7.38;1.90;;;;;;;;;;6057458;23;20459;-62
2023/07/30 14:15:00;;;;;;;7.38;1.95;;;;;;;;;;6059357;23;20059;-61
2023/07/30 14:17:27;;;;;;;5.00;1.77;;;;;;;;;;6057444;23;20389;-62
2023/07/30 14:20:14;;;;;;;9.50;1.95;;;;;;;;;;6057528;23;20022;-57
2023/07/30 14:22:49;;;;;;;6.47;1.70;;;;;;;;;;6056551;23;20030;-62
2023/07/30 14:25:22;;;;;;;6.97;1.90;;;;;;;;;;6058187;23;20079;-62
2023/07/30 14:27:50;;;;;;;;;;;;;;;;;;6059356;23;20103;-62
2023/07/30 14:30:17;;;;;;;7.13;2.13;;;;;;;;;;6059909;23;19921;-62
2023/07/30 14:32:50;;;;;;;9.45;2.05;;;;;;;;;;6058234;23;20031;-63
2023/07/30 14:35:18;;;;;;;;;;;;;;;;;;6056334;23;20513;-62
2023/07/30 14:37:53;;;;;;;6.13;1.85;;;;;;;;;;6057637;23;19996;-53
2023/07/30 14:40:20;;;;;;;4.88;2.05;;;;;;;;;;6058079;23;20390;-62
2023/07/30 14:43:14;;;;;;;6.20;2.20;;;;;;;;;;6057072;23;20505;-62
2023/07/30 14:46:01;;;;;;;9.50;2.30;;;;;;;;;;6057910;23;20027;-62
2023/07/30 14:48:55;;;;;;;10.48;2.38;;;;;;;;;;6059227;23;20660;-62
2023/07/30 14:51:42;;;;;;;8.52;2.67;;;;;;;;;;6059726;23;20027;-62
2023/07/30 14:54:36;;;;;;;6.95;2.58;;;;;;;;;;6056605;23;20023;-62
2023/07/30 14:57:09;;;;;;;7.75;2.60;;;;;;;;;;6060426;23;20031;-60
2023/07/30 14:59:37;;;;;;;4.72;2.03;;;;;;;;;;6061142;23;20031;-53
2023/07/30 15:02:04;;;;;;;6.90;2.25;;;;;;;;;;6061797;23;20026;-51